createdAt,value
2023-07-25T00:01:39.681Z,0.60
2023-07-25T00:04:06.151Z,1.07
2023-07-25T00:06:32.685Z,1.13
2023-07-25T00:08:59.205Z,1.13
2023-07-25T00:11:25.689Z,0.70
2023-07-25T00:13:52.181Z,1.00
2023-07-25T00:16:18.744Z,1.17
2023-07-25T00:18:45.216Z,1.07
2023-07-25T00:21:11.701Z,1.30
2023-07-25T00:23:38.159Z,1.07
2023-07-25T00:26:04.571Z,1.10
2023-07-25T00:28:30.970Z,0.90
2023-07-25T00:30:57.522Z,1.00
2023-07-25T00:33:23.928Z,1.13
2023-07-25T00:35:53.945Z,0.80
2023-07-25T00:38:20.413Z,1.10
2023-07-25T00:40:47.915Z,1.30
2023-07-25T00:43:14.784Z,0.97
2023-07-25T00:45:41.451Z,1.37
2023-07-25T00:48:07.987Z,1.23
2023-07-25T00:50:34.600Z,0.80
2023-07-25T00:53:02.479Z,0.97
2023-07-25T00:55:29.775Z,1.00
2023-07-25T00:57:56.224Z,0.60
2023-07-25T01:00:22.721Z,0.70
2023-07-25T01:02:49.819Z,1.10
2023-07-25T01:05:16.652Z,1.03
2023-07-25T01:07:43.197Z,1.10
2023-07-25T01:10:09.971Z,1.20
2023-07-25T01:12:36.457Z,0.90
2023-07-25T01:15:03.358Z,0.97
2023-07-25T01:17:29.940Z,1.20
2023-07-25T01:19:57.174Z,0.90
2023-07-25T01:22:27.375Z,1.07
2023-07-25T01:24:55.824Z,0.97
2023-07-25T01:27:22.429Z,0.90
2023-07-25T01:29:49.083Z,0.60
2023-07-25T01:32:15.595Z,0.77
2023-07-25T01:34:42.129Z,0.80
2023-07-25T01:37:09.572Z,0.73
2023-07-25T01:39:36.119Z,1.00
2023-07-25T01:42:02.823Z,1.10
2023-07-25T01:44:29.345Z,1.00
2023-07-25T01:46:58.119Z,1.20
2023-07-25T01:49:24.653Z,0.80
2023-07-25T01:51:51.215Z,1.10
2023-07-25T01:54:20.583Z,0.80
2023-07-25T01:56:50.305Z,1.53
2023-07-25T01:59:18.112Z,0.83
2023-07-25T02:01:44.714Z,1.07
2023-07-25T02:04:11.219Z,1.10
2023-07-25T02:06:37.771Z,1.50
2023-07-25T02:09:04.391Z,1.10
2023-07-25T02:11:31.237Z,1.07
2023-07-25T02:13:57.929Z,0.80
2023-07-25T02:16:25.318Z,1.47
2023-07-25T02:18:51.829Z,1.23
2023-07-25T02:21:18.258Z,1.10
2023-07-25T02:23:44.858Z,1.07
2023-07-25T02:26:11.393Z,1.20
2023-07-25T02:28:37.863Z,0.90
2023-07-25T02:31:04.324Z,1.00
2023-07-25T02:33:30.965Z,0.90
2023-07-25T02:35:57.377Z,0.80
2023-07-25T02:38:25.039Z,1.00
2023-07-25T02:40:51.517Z,1.00
2023-07-25T02:43:18.215Z,0.80
2023-07-25T02:45:44.645Z,1.00
2023-07-25T02:48:11.057Z,1.00
2023-07-25T02:50:37.476Z,1.00
2023-07-25T02:53:03.970Z,0.90
2023-07-25T02:55:31.529Z,0.77
2023-07-25T02:57:58.018Z,1.20
2023-07-25T03:00:25.402Z,1.30
2023-07-25T03:02:52.081Z,0.90
2023-07-25T03:05:19.089Z,1.50
2023-07-25T03:07:45.552Z,0.93
2023-07-25T03:10:12.052Z,1.07
2023-07-25T03:12:38.558Z,1.07
2023-07-25T03:15:05.456Z,0.87
2023-07-25T03:17:32.550Z,1.20
2023-07-25T03:19:59.219Z,1.07
2023-07-25T03:22:25.679Z,1.00
2023-07-25T03:24:52.203Z,1.53
2023-07-25T03:27:18.977Z,1.33
2023-07-25T03:29:45.526Z,1.73
2023-07-25T03:32:11.983Z,0.90
2023-07-25T03:34:38.405Z,0.80
2023-07-25T03:37:05.154Z,1.40
2023-07-25T03:39:31.625Z,0.93
2023-07-25T03:41:58.047Z,0.90
2023-07-25T03:44:24.498Z,1.50
2023-07-25T03:46:50.954Z,1.23
2023-07-25T03:49:17.412Z,0.80
2023-07-25T03:51:43.997Z,1.57
2023-07-25T03:54:11.894Z,1.60
2023-07-25T03:56:38.724Z,1.33
2023-07-25T03:59:05.150Z,1.07
2023-07-25T04:01:32.270Z,1.97
2023-07-25T04:03:59.168Z,1.33
2023-07-25T04:06:25.802Z,1.33
2023-07-25T04:08:52.278Z,1.43
2023-07-25T04:11:18.841Z,1.10
2023-07-25T04:13:45.323Z,0.90
2023-07-25T04:16:11.872Z,1.40
2023-07-25T04:18:38.402Z,0.80
2023-07-25T04:21:04.835Z,1.60
2023-07-25T04:23:31.319Z,1.03
2023-07-25T04:25:57.844Z,1.00
2023-07-25T04:28:24.254Z,1.07
2023-07-25T04:30:50.830Z,1.17
2023-07-25T04:33:17.289Z,1.10
2023-07-25T04:35:46.528Z,0.90
2023-07-25T04:38:14.422Z,1.30
2023-07-25T04:40:41.026Z,1.13
2023-07-25T04:43:07.498Z,1.13
2023-07-25T04:45:33.948Z,1.00
2023-07-25T04:48:00.663Z,0.87
2023-07-25T04:50:27.152Z,1.03
2023-07-25T04:52:53.693Z,1.10
2023-07-25T04:55:20.321Z,1.00
2023-07-25T04:57:46.897Z,1.30
2023-07-25T05:00:13.666Z,1.23
2023-07-25T05:02:42.457Z,1.23
2023-07-25T05:05:09.337Z,0.93
2023-07-25T05:07:35.768Z,1.10
2023-07-25T05:10:02.252Z,1.00
2023-07-25T05:12:28.699Z,1.23
2023-07-25T05:14:55.095Z,0.90
2023-07-25T05:17:21.612Z,1.50
2023-07-25T05:19:50.653Z,1.20
2023-07-25T05:22:17.472Z,0.90
2023-07-25T05:24:43.948Z,0.80
2023-07-25T05:27:10.443Z,1.33
2023-07-25T05:29:36.951Z,1.00
2023-07-25T05:32:03.554Z,1.43
2023-07-25T05:34:30.044Z,1.17
2023-07-25T05:36:56.458Z,1.37
2023-07-25T05:39:22.918Z,1.10
2023-07-25T05:41:49.324Z,1.97
2023-07-25T05:44:15.905Z,1.50
2023-07-25T05:46:42.321Z,1.27
2023-07-25T05:49:08.799Z,1.20
2023-07-25T05:51:35.318Z,1.20
2023-07-25T05:54:01.756Z,0.83
2023-07-25T05:56:28.252Z,1.20
2023-07-25T05:58:55.412Z,1.20
2023-07-25T06:01:22.049Z,1.10
2023-07-25T06:03:48.586Z,1.40
2023-07-25T06:06:15.122Z,2.10
2023-07-25T06:08:41.573Z,1.40
2023-07-25T06:11:08.303Z,1.40
2023-07-25T06:13:35.291Z,1.17
2023-07-25T06:16:01.897Z,1.73
2023-07-25T06:18:28.523Z,1.00
2023-07-25T06:20:55.077Z,2.07
2023-07-25T06:23:21.911Z,1.47
2023-07-25T06:25:48.433Z,1.50
2023-07-25T06:28:18.821Z,1.47
2023-07-25T06:30:45.478Z,1.63
2023-07-25T06:33:16.542Z,1.67
2023-07-25T06:35:43.088Z,1.20
2023-07-25T06:38:09.512Z,1.40
2023-07-25T06:40:35.970Z,1.50
2023-07-25T06:43:02.419Z,1.27
2023-07-25T06:45:28.861Z,1.30
2023-07-25T06:47:55.377Z,1.10
2023-07-25T06:50:22.001Z,1.50
2023-07-25T06:52:48.604Z,1.47
2023-07-25T06:55:16.406Z,1.23
2023-07-25T06:57:42.939Z,1.27
2023-07-25T07:00:10.178Z,1.90
2023-07-25T07:02:36.712Z,1.40
2023-07-25T07:05:15.400Z,1.60
2023-07-25T07:07:50.058Z,1.67
2023-07-25T07:10:16.615Z,1.53
2023-07-25T07:12:48.801Z,1.30
2023-07-25T07:15:19.080Z,1.50
2023-07-25T07:17:45.759Z,0.70
2023-07-25T07:20:12.775Z,1.17
2023-07-25T07:22:39.281Z,1.37
2023-07-25T07:25:06.220Z,1.40
2023-07-25T07:27:32.671Z,1.20
2023-07-25T07:29:59.222Z,1.43
2023-07-25T07:32:25.807Z,1.20
2023-07-25T07:34:52.312Z,1.60
2023-07-25T07:37:18.825Z,1.17
2023-07-25T07:39:45.240Z,1.40
2023-07-25T07:42:11.681Z,1.70
2023-07-25T07:44:38.160Z,1.70
2023-07-25T07:47:05.002Z,1.00
2023-07-25T07:49:34.315Z,2.23
2023-07-25T07:52:13.489Z,1.63
2023-07-25T07:54:44.277Z,1.30
2023-07-25T07:57:10.819Z,1.83
2023-07-25T07:59:37.380Z,1.40
2023-07-25T08:02:04.169Z,2.17
2023-07-25T08:04:30.639Z,1.73
2023-07-25T08:06:57.169Z,1.73
2023-07-25T08:09:23.655Z,1.30
2023-07-25T08:11:50.219Z,1.80
2023-07-25T08:14:16.800Z,1.47
2023-07-25T08:16:43.294Z,1.80
2023-07-25T08:19:09.838Z,2.00
2023-07-25T08:21:37.279Z,0.93
2023-07-25T08:24:04.719Z,1.60
2023-07-25T08:26:31.472Z,1.63
2023-07-25T08:28:58.042Z,1.87
2023-07-25T08:31:24.660Z,1.00
2023-07-25T08:33:51.171Z,1.30
2023-07-25T08:36:17.561Z,0.90
2023-07-25T08:38:44.099Z,1.10
2023-07-25T08:41:26.552Z,1.10
2023-07-25T08:43:54.182Z,0.93
2023-07-25T08:46:21.362Z,1.50
2023-07-25T08:48:49.636Z,1.33
2023-07-25T08:51:23.947Z,1.23
2023-07-25T08:54:03.848Z,0.90
2023-07-25T08:56:31.428Z,1.07
2023-07-25T08:58:59.758Z,1.37
2023-07-25T09:01:26.757Z,1.07
2023-07-25T09:03:54.944Z,0.60
2023-07-25T09:06:21.972Z,1.00
2023-07-25T09:08:48.355Z,0.87
2023-07-25T09:11:20.357Z,0.73
2023-07-25T09:13:46.843Z,1.10
2023-07-25T09:16:16.201Z,0.60
2023-07-25T09:18:43.640Z,0.90
2023-07-25T09:21:10.267Z,1.10
2023-07-25T09:23:36.770Z,0.80
2023-07-25T09:26:10.652Z,0.63
2023-07-25T09:28:49.671Z,1.03
2023-07-25T09:31:16.374Z,0.90
2023-07-25T09:33:42.911Z,0.70
2023-07-25T09:36:09.701Z,0.93
2023-07-25T09:38:36.142Z,0.77
2023-07-25T09:41:04.763Z,1.00
2023-07-25T09:43:31.212Z,0.57
2023-07-25T09:45:57.759Z,0.80
2023-07-25T09:48:24.295Z,0.57
2023-07-25T09:50:51.641Z,0.60
2023-07-25T09:53:19.101Z,0.80
2023-07-25T09:55:46.704Z,0.87
2023-07-25T09:58:13.750Z,0.73
2023-07-25T10:00:41.789Z,0.70
2023-07-25T10:03:11.473Z,1.60
2023-07-25T10:05:45.348Z,0.70
2023-07-25T10:08:12.838Z,0.60
2023-07-25T10:10:41.694Z,0.60
2023-07-25T10:13:10.020Z,0.70
2023-07-25T10:15:37.507Z,0.87
2023-07-25T10:18:05.530Z,0.67
2023-07-25T10:20:32.122Z,0.60
2023-07-25T10:23:10.627Z,0.67
2023-07-25T10:25:37.179Z,0.80
2023-07-25T10:28:05.300Z,1.07
2023-07-25T10:30:46.382Z,0.90
2023-07-25T10:33:14.836Z,0.50
2023-07-25T10:35:51.637Z,0.63
2023-07-25T10:38:33.026Z,0.60
2023-07-25T10:41:00.635Z,0.70
2023-07-25T10:43:50.709Z,0.43
2023-07-25T10:46:28.218Z,0.40
2023-07-25T10:48:56.810Z,0.60
2023-07-25T10:51:24.279Z,0.60
2023-07-25T10:54:11.176Z,0.40
2023-07-25T10:56:38.870Z,0.50
2023-07-25T10:59:13.206Z,0.57
2023-07-25T11:01:44.823Z,0.53
2023-07-25T11:04:39.294Z,0.50
2023-07-25T11:07:13.812Z,0.40
2023-07-25T11:09:43.071Z,0.77
2023-07-25T11:12:11.181Z,0.50
2023-07-25T11:14:45.499Z,0.60
2023-07-25T11:17:13.317Z,0.63
2023-07-25T11:19:39.990Z,0.50
2023-07-25T11:22:13.117Z,3.27
2023-07-25T11:24:44.538Z,1.20
2023-07-25T11:27:12.182Z,0.70
2023-07-25T11:29:38.690Z,0.63
2023-07-25T11:32:05.537Z,0.80
2023-07-25T11:34:31.969Z,0.37
2023-07-25T11:36:58.459Z,0.70
2023-07-25T11:39:24.991Z,0.40
2023-07-25T11:41:51.510Z,0.80
2023-07-25T11:44:20.233Z,0.93
2023-07-25T11:46:52.700Z,0.40
2023-07-25T11:49:40.305Z,0.90
2023-07-25T11:52:09.140Z,0.50
2023-07-25T11:54:35.762Z,0.23
2023-07-25T11:57:02.914Z,0.40
2023-07-25T11:59:29.474Z,0.40
2023-07-25T12:02:05.760Z,0.50
2023-07-25T12:04:32.329Z,0.40
2023-07-25T12:07:00.160Z,0.57
2023-07-25T12:09:29.884Z,0.67
2023-07-25T12:11:56.379Z,0.47
2023-07-25T12:14:23.339Z,0.40
2023-07-25T12:16:49.980Z,0.30
2023-07-25T12:19:16.651Z,0.60
2023-07-25T12:21:45.322Z,0.40
2023-07-25T12:24:13.766Z,0.40
2023-07-25T12:26:52.976Z,0.53
2023-07-25T12:29:25.586Z,0.40
2023-07-25T12:31:53.529Z,0.60
2023-07-25T12:34:21.656Z,0.60
2023-07-25T12:36:49.872Z,0.77
2023-07-25T12:39:16.657Z,0.60
2023-07-25T12:41:44.752Z,0.60
2023-07-25T12:44:11.983Z,0.63
2023-07-25T12:46:41.639Z,0.73
2023-07-25T12:49:08.537Z,0.40
2023-07-25T12:51:35.382Z,0.50
2023-07-25T12:54:02.478Z,0.87
2023-07-25T12:56:28.964Z,0.40
2023-07-25T12:58:55.960Z,0.30
2023-07-25T13:01:23.108Z,0.30
2023-07-25T13:03:49.813Z,0.50
2023-07-25T13:06:16.405Z,0.53
2023-07-25T13:08:42.835Z,0.47
2023-07-25T13:11:09.381Z,0.30
2023-07-25T13:13:35.954Z,0.20
2023-07-25T13:16:04.814Z,0.53
2023-07-25T13:18:31.360Z,0.60
2023-07-25T13:20:57.804Z,0.70
2023-07-25T13:23:24.291Z,0.43
2023-07-25T13:25:51.049Z,0.30
2023-07-25T13:28:17.749Z,0.13
2023-07-25T13:30:44.505Z,0.30
2023-07-25T13:33:11.478Z,0.30
2023-07-25T13:35:38.090Z,0.23
2023-07-25T13:38:04.655Z,0.40
2023-07-25T13:40:31.241Z,0.50
2023-07-25T13:42:57.731Z,0.23
2023-07-25T13:45:34.361Z,0.23
2023-07-25T13:48:04.672Z,0.60
2023-07-25T13:50:42.172Z,0.60
2023-07-25T13:53:09.204Z,0.50
2023-07-25T13:55:35.709Z,0.80
2023-07-25T13:58:09.944Z,1.00
2023-07-25T14:00:36.719Z,0.33
2023-07-25T14:03:03.496Z,0.30
2023-07-25T14:05:29.974Z,0.67
2023-07-25T14:07:56.425Z,0.37
2023-07-25T14:10:22.944Z,0.20
2023-07-25T14:12:49.406Z,0.40
2023-07-25T14:15:15.877Z,0.50
2023-07-25T14:17:42.457Z,0.43
2023-07-25T14:20:09.473Z,0.57
2023-07-25T14:22:35.861Z,0.47
2023-07-25T14:25:02.372Z,0.50
2023-07-25T14:27:28.905Z,0.53
2023-07-25T14:29:55.496Z,0.63
2023-07-25T14:32:22.157Z,0.60
2023-07-25T14:34:50.818Z,0.80
2023-07-25T14:37:17.288Z,0.60
2023-07-25T14:39:44.052Z,0.63
2023-07-25T14:42:10.485Z,1.00
2023-07-25T14:44:36.905Z,0.80
2023-07-25T14:47:03.543Z,1.07
2023-07-25T14:49:30.118Z,0.70
2023-07-25T14:51:57.318Z,1.83
2023-07-25T14:54:23.797Z,0.87
2023-07-25T14:56:50.621Z,0.80
2023-07-25T14:59:17.123Z,1.03
2023-07-25T15:01:43.641Z,0.43
2023-07-25T15:04:10.367Z,0.80
2023-07-25T15:06:36.870Z,0.93
2023-07-25T15:09:03.503Z,0.47
2023-07-25T15:11:30.474Z,1.10
2023-07-25T15:13:56.925Z,0.90
2023-07-25T15:16:23.488Z,0.67
2023-07-25T15:18:49.995Z,0.93
2023-07-25T15:21:16.536Z,1.30
2023-07-25T15:23:42.982Z,0.77
2023-07-25T15:26:11.289Z,1.10
2023-07-25T15:28:38.213Z,1.53
2023-07-25T15:31:04.909Z,0.73
2023-07-25T15:33:31.474Z,0.67
2023-07-25T15:35:58.287Z,1.10
2023-07-25T15:38:25.597Z,1.03
2023-07-25T15:40:52.214Z,0.73
2023-07-25T15:43:18.636Z,0.80
2023-07-25T15:45:45.117Z,1.10
2023-07-25T15:48:11.836Z,0.93
2023-07-25T15:50:38.286Z,1.00
2023-07-25T15:53:04.745Z,0.70
2023-07-25T15:55:31.262Z,0.40
2023-07-25T15:57:57.762Z,0.73
2023-07-25T16:00:25.209Z,0.60
2023-07-25T16:02:51.772Z,0.50
2023-07-25T16:05:18.323Z,0.30
2023-07-25T16:07:44.778Z,0.70
2023-07-25T16:10:11.233Z,0.70
2023-07-25T16:12:37.767Z,0.77
2023-07-25T16:15:04.766Z,0.60
2023-07-25T16:17:31.348Z,0.67
2023-07-25T16:19:57.989Z,0.63
2023-07-25T16:22:24.562Z,0.70
2023-07-25T16:24:51.166Z,0.60
2023-07-25T16:27:17.736Z,0.43
2023-07-25T16:29:44.158Z,0.90
2023-07-25T16:32:14.181Z,0.67
2023-07-25T16:34:40.686Z,1.00
2023-07-25T16:37:07.259Z,0.70
2023-07-25T16:39:33.858Z,0.50
2023-07-25T16:42:00.387Z,0.80
2023-07-25T16:44:26.793Z,0.53
2023-07-25T16:46:53.200Z,0.50
2023-07-25T16:49:19.881Z,0.70
2023-07-25T16:51:46.432Z,1.00
2023-07-25T16:54:12.932Z,0.80
2023-07-25T16:56:39.721Z,0.43
2023-07-25T16:59:08.015Z,0.43
2023-07-25T17:01:34.948Z,0.40
2023-07-25T17:04:01.922Z,0.40
2023-07-25T17:06:28.470Z,0.60
2023-07-25T17:08:56.489Z,0.70
2023-07-25T17:11:23.036Z,0.60
2023-07-25T17:13:49.460Z,0.67
2023-07-25T17:16:16.001Z,0.50
2023-07-25T17:18:42.563Z,0.57
2023-07-25T17:21:11.357Z,0.57
2023-07-25T17:23:37.807Z,0.60
2023-07-25T17:26:04.224Z,0.60
2023-07-25T17:28:30.914Z,1.00
2023-07-25T17:30:57.479Z,1.10
2023-07-25T17:33:24.032Z,0.97
2023-07-25T17:35:50.575Z,0.80
2023-07-25T17:38:18.625Z,0.70
2023-07-25T17:40:45.468Z,0.87
2023-07-25T17:43:12.277Z,0.93
2023-07-25T17:45:38.871Z,1.07
2023-07-25T17:48:05.681Z,0.70
2023-07-25T17:50:32.336Z,0.63
2023-07-25T17:52:58.905Z,0.50
2023-07-25T17:55:25.435Z,0.70
2023-07-25T17:57:51.854Z,0.70
2023-07-25T18:00:18.488Z,0.30
2023-07-25T18:02:45.740Z,0.67
2023-07-25T18:05:14.568Z,0.90
2023-07-25T18:07:41.079Z,0.50
2023-07-25T18:10:07.999Z,0.80
2023-07-25T18:12:34.485Z,0.67
2023-07-25T18:15:01.008Z,0.87
2023-07-25T18:17:36.414Z,0.80
2023-07-25T18:20:02.880Z,0.73
2023-07-25T18:22:32.246Z,0.93
2023-07-25T18:24:59.829Z,0.73
2023-07-25T18:27:26.344Z,0.73
2023-07-25T18:29:52.846Z,0.73
2023-07-25T18:32:19.274Z,0.60
2023-07-25T18:34:45.756Z,0.70
2023-07-25T18:37:12.235Z,1.23
2023-07-25T18:39:38.794Z,0.73
2023-07-25T18:42:06.131Z,0.93
2023-07-25T18:44:32.740Z,0.93
2023-07-25T18:46:59.293Z,0.70
2023-07-25T18:49:25.868Z,1.33
2023-07-25T18:51:52.331Z,1.20
2023-07-25T18:54:18.793Z,1.00
2023-07-25T18:56:45.315Z,0.90
2023-07-25T18:59:11.726Z,0.87
2023-07-25T19:01:38.272Z,1.17
2023-07-25T19:04:04.925Z,1.20
2023-07-25T19:06:31.585Z,0.80
2023-07-25T19:08:58.229Z,1.20
2023-07-25T19:11:24.688Z,1.17
2023-07-25T19:13:51.189Z,0.80
2023-07-25T19:16:17.673Z,1.17
2023-07-25T19:18:44.190Z,1.30
2023-07-25T19:21:10.630Z,1.20
2023-07-25T19:23:37.116Z,1.13
2023-07-25T19:26:03.586Z,1.20
2023-07-25T19:28:30.097Z,1.20
2023-07-25T19:30:57.382Z,1.10
2023-07-25T19:33:25.510Z,0.97
2023-07-25T19:35:57.212Z,1.43
2023-07-25T19:38:24.423Z,0.83
2023-07-25T19:40:51.559Z,0.97
2023-07-25T19:43:18.244Z,1.00
2023-07-25T19:45:47.660Z,0.80
2023-07-25T19:48:16.315Z,0.97
2023-07-25T19:50:46.380Z,1.47
2023-07-25T19:53:14.236Z,1.40
2023-07-25T19:55:40.753Z,1.13
2023-07-25T19:58:07.296Z,1.33
2023-07-25T20:00:33.987Z,1.60
2023-07-25T20:03:00.671Z,1.27
2023-07-25T20:05:27.276Z,1.30
2023-07-25T20:07:54.208Z,1.30
2023-07-25T20:10:20.700Z,1.13
2023-07-25T20:12:47.184Z,1.30
2023-07-25T20:15:13.750Z,1.00
2023-07-25T20:17:40.270Z,1.10
2023-07-25T20:20:07.297Z,1.37
2023-07-25T20:22:34.526Z,1.10
2023-07-25T20:25:01.077Z,0.70
2023-07-25T20:27:27.555Z,1.00
2023-07-25T20:29:54.103Z,1.47
2023-07-25T20:32:20.615Z,0.90
2023-07-25T20:34:47.257Z,1.40
2023-07-25T20:37:14.716Z,1.33
2023-07-25T20:39:41.268Z,1.30
2023-07-25T20:42:09.451Z,1.33
2023-07-25T20:44:35.903Z,1.30
2023-07-25T20:47:05.268Z,1.13
2023-07-25T20:49:31.990Z,1.10
2023-07-25T20:51:59.221Z,1.20
2023-07-25T20:54:25.643Z,1.00
2023-07-25T20:56:52.093Z,1.20
2023-07-25T20:59:18.628Z,1.77
2023-07-25T21:01:45.145Z,1.73
2023-07-25T21:04:11.685Z,1.63
2023-07-25T21:06:38.235Z,1.57
2023-07-25T21:09:04.731Z,1.37
2023-07-25T21:11:31.151Z,1.73
2023-07-25T21:13:57.608Z,1.83
2023-07-25T21:16:24.108Z,2.00
2023-07-25T21:18:50.634Z,1.60
2023-07-25T21:21:17.040Z,1.73
2023-07-25T21:23:43.523Z,1.70
2023-07-25T21:26:10.035Z,1.83
2023-07-25T21:28:36.507Z,1.60
2023-07-25T21:31:09.911Z,1.57
2023-07-25T21:33:37.345Z,1.70
2023-07-25T21:36:09.528Z,1.50
2023-07-25T21:38:35.998Z,1.73
2023-07-25T21:41:10.000Z,1.77
2023-07-25T21:43:36.574Z,1.50
2023-07-25T21:46:03.173Z,1.13
2023-07-25T21:48:30.201Z,1.73
2023-07-25T21:50:57.976Z,1.63
2023-07-25T21:53:29.099Z,1.87
2023-07-25T21:55:57.029Z,1.43
2023-07-25T21:58:26.478Z,2.00
2023-07-25T22:00:55.938Z,1.80
2023-07-25T22:03:22.539Z,1.80
2023-07-25T22:05:49.126Z,1.57
2023-07-25T22:08:15.715Z,1.53
2023-07-25T22:10:42.235Z,1.73
2023-07-25T22:13:09.558Z,1.60
2023-07-25T22:15:36.176Z,1.80
2023-07-25T22:18:02.739Z,1.47
2023-07-25T22:20:38.401Z,1.17
2023-07-25T22:23:09.138Z,1.90
2023-07-25T22:25:35.689Z,1.50
2023-07-25T22:28:02.080Z,2.00
2023-07-25T22:30:28.570Z,1.73
2023-07-25T22:32:55.105Z,2.00
2023-07-25T22:35:21.746Z,1.87
2023-07-25T22:37:59.075Z,1.87
2023-07-25T22:40:25.528Z,2.13
2023-07-25T22:42:52.008Z,1.43
2023-07-25T22:45:18.481Z,2.50
2023-07-25T22:47:45.031Z,1.70
2023-07-25T22:50:11.675Z,1.83
2023-07-25T22:52:38.194Z,2.23
2023-07-25T22:55:05.024Z,1.77
2023-07-25T22:57:31.505Z,1.90
2023-07-25T22:59:57.942Z,2.37
2023-07-25T23:02:24.499Z,2.27
2023-07-25T23:04:50.960Z,2.43
2023-07-25T23:07:17.384Z,2.23
2023-07-25T23:09:43.884Z,2.30
2023-07-25T23:12:12.351Z,2.50
2023-07-25T23:14:38.757Z,2.40
2023-07-25T23:17:05.427Z,2.10
2023-07-25T23:19:31.854Z,2.30
2023-07-25T23:21:58.272Z,2.17
2023-07-25T23:24:24.750Z,2.57
2023-07-25T23:26:51.297Z,2.77
2023-07-25T23:29:17.786Z,2.33
2023-07-25T23:31:44.196Z,2.10
2023-07-25T23:34:10.677Z,2.53
2023-07-25T23:36:37.069Z,2.30
2023-07-25T23:39:03.516Z,2.50
2023-07-25T23:41:29.957Z,2.20
2023-07-25T23:43:56.389Z,3.07
2023-07-25T23:46:22.846Z,2.97
2023-07-25T23:48:49.440Z,2.20
2023-07-25T23:51:15.860Z,2.90
2023-07-25T23:53:42.353Z,3.23
2023-07-25T23:56:09.031Z,2.57
2023-07-25T23:58:35.731Z,3.60
